createdAt,value
2023-05-21T00:02:01.962Z,21.67
2023-05-21T00:05:04.455Z,21.53
2023-05-21T00:08:07.363Z,22.80
2023-05-21T00:11:10.098Z,19.60
2023-05-21T00:14:12.402Z,21.33
2023-05-21T00:17:14.663Z,19.77
2023-05-21T00:20:17.736Z,21.23
2023-05-21T00:23:20.314Z,23.97
2023-05-21T00:26:34.455Z,20.73
2023-05-21T00:33:17.456Z,20.97
2023-05-21T00:36:34.864Z,21.37
2023-05-21T00:39:37.392Z,20.53
2023-05-21T00:42:39.932Z,20.83
2023-05-21T00:45:47.992Z,21.50
2023-05-21T00:48:51.594Z,19.53
2023-05-21T00:51:55.144Z,21.40
2023-05-21T00:54:57.378Z,20.57
2023-05-21T00:57:59.635Z,23.23
2023-05-21T01:01:04.064Z,19.57
2023-05-21T01:04:06.515Z,18.80
2023-05-21T01:07:10.197Z,22.23
2023-05-21T01:10:12.930Z,17.70
2023-05-21T01:13:16.947Z,18.33
2023-05-21T01:16:19.804Z,17.97
2023-05-21T01:19:24.196Z,19.17
2023-05-21T01:22:29.666Z,21.93
2023-05-21T01:25:31.951Z,19.90
2023-05-21T01:28:34.918Z,20.20
2023-05-21T01:31:54.095Z,21.87
2023-05-21T01:35:11.613Z,20.83
2023-05-21T01:38:41.251Z,22.40
2023-05-21T01:41:46.408Z,22.03
2023-05-21T01:44:52.207Z,18.07
2023-05-21T01:47:56.621Z,19.57
2023-05-21T01:51:02.247Z,20.53
2023-05-21T01:54:04.581Z,23.93
2023-05-21T01:57:07.021Z,21.20
2023-05-21T02:00:11.117Z,20.50
2023-05-21T02:03:18.735Z,21.53
2023-05-21T02:06:21.157Z,22.03
2023-05-21T02:09:23.638Z,18.20
2023-05-21T02:12:26.246Z,22.53
2023-05-21T02:15:28.524Z,21.27
2023-05-21T02:18:30.800Z,21.03
2023-05-21T02:21:33.692Z,21.50
2023-05-21T02:24:36.044Z,21.10
2023-05-21T02:27:39.290Z,23.77
2023-05-21T02:30:41.898Z,19.47
2023-05-21T02:33:44.358Z,19.07
2023-05-21T02:36:52.592Z,21.93
2023-05-21T02:39:55.547Z,22.97
2023-05-21T02:42:57.904Z,23.70
2023-05-21T02:46:00.416Z,24.07
2023-05-21T02:49:04.156Z,24.43
2023-05-21T02:52:06.660Z,23.80
2023-05-21T02:55:10.229Z,28.43
2023-05-21T02:58:14.137Z,24.47
2023-05-21T03:01:17.363Z,23.37
2023-05-21T03:04:22.177Z,23.03
2023-05-21T03:07:24.930Z,24.00
2023-05-21T03:10:27.214Z,28.30
2023-05-21T03:13:29.592Z,22.27
2023-05-21T03:16:34.933Z,26.73
2023-05-21T03:19:37.271Z,29.43
2023-05-21T03:22:40.397Z,26.57
2023-05-21T03:25:43.011Z,24.67
2023-05-21T03:28:45.611Z,22.63
2023-05-21T03:31:48.572Z,24.13
2023-05-21T03:34:51.315Z,26.83
2023-05-21T03:37:54.055Z,23.67
2023-05-21T03:40:56.314Z,25.63
2023-05-21T03:43:58.835Z,28.57
2023-05-21T03:47:05.918Z,26.60
2023-05-21T03:50:11.170Z,23.30
2023-05-21T03:53:14.267Z,22.70
2023-05-21T03:56:16.934Z,23.17
2023-05-21T03:59:19.292Z,26.17
2023-05-21T04:02:23.330Z,24.00
2023-05-21T04:05:25.856Z,23.93
2023-05-21T04:08:29.182Z,25.50
2023-05-21T04:11:31.753Z,23.97
2023-05-21T04:14:34.549Z,23.60
2023-05-21T04:17:36.903Z,24.30
2023-05-21T04:20:39.433Z,21.30
2023-05-21T04:23:41.778Z,19.93
2023-05-21T04:26:52.761Z,22.40
2023-05-21T04:29:55.069Z,25.17
2023-05-21T04:33:00.588Z,21.70
2023-05-21T04:36:05.582Z,23.77
2023-05-21T04:39:08.481Z,23.53
2023-05-21T04:42:11.558Z,24.37
2023-05-21T04:45:14.388Z,25.00
2023-05-21T04:48:19.626Z,27.03
2023-05-21T04:51:24.983Z,25.10
2023-05-21T04:54:28.222Z,28.03
2023-05-21T04:57:31.271Z,27.47
2023-05-21T05:00:34.913Z,24.23
2023-05-21T05:03:37.535Z,27.33
2023-05-21T05:06:40.252Z,25.90
2023-05-21T05:09:44.466Z,27.20
2023-05-21T05:12:47.252Z,25.77
2023-05-21T05:15:51.536Z,27.13
2023-05-21T05:18:56.706Z,25.87
2023-05-21T05:21:59.023Z,25.73
2023-05-21T05:25:01.530Z,22.50
2023-05-21T05:28:04.589Z,22.77
2023-05-21T05:31:07.245Z,20.43
2023-05-21T05:34:09.708Z,22.47
2023-05-21T05:37:13.398Z,25.00
2023-05-21T05:40:17.122Z,25.00
2023-05-21T05:43:20.181Z,26.23
2023-05-21T05:46:34.680Z,23.33
2023-05-21T05:49:46.128Z,25.83
2023-05-21T05:52:54.985Z,28.20
2023-05-21T05:59:44.854Z,22.77
2023-05-21T06:03:05.303Z,25.00
2023-05-21T06:18:44.705Z,21.00
2023-05-21T06:22:08.536Z,18.77
2023-05-21T06:25:11.041Z,17.53
2023-05-21T06:28:14.198Z,16.03
2023-05-21T06:31:16.918Z,18.30
2023-05-21T06:34:19.738Z,15.37
2023-05-21T06:37:23.139Z,14.27
2023-05-21T06:40:27.754Z,13.40
2023-05-21T06:43:32.532Z,13.83
2023-05-21T06:46:53.289Z,15.00
2023-05-21T06:49:55.709Z,12.37
2023-05-21T06:52:57.973Z,11.60
2023-05-21T06:56:00.414Z,13.37
2023-05-21T06:59:14.821Z,10.90
2023-05-21T07:02:17.189Z,10.43
2023-05-21T07:05:19.466Z,10.93
2023-05-21T07:08:21.626Z,13.90
2023-05-21T07:11:28.940Z,12.10
2023-05-21T07:14:33.017Z,10.00
2023-05-21T07:17:35.959Z,9.17
2023-05-21T07:20:38.745Z,11.23
2023-05-21T07:23:43.013Z,9.17
2023-05-21T07:26:45.456Z,11.07
2023-05-21T07:29:48.237Z,10.30
2023-05-21T07:32:52.317Z,13.77
2023-05-21T07:35:55.562Z,10.17
2023-05-21T07:38:59.109Z,10.77
2023-05-21T07:42:01.555Z,11.03
2023-05-21T07:45:04.710Z,10.47
2023-05-21T07:48:12.281Z,9.47
2023-05-21T07:51:25.571Z,11.13
2023-05-21T07:54:28.341Z,11.57
2023-05-21T07:57:31.179Z,11.67
2023-05-21T08:00:44.731Z,10.30
2023-05-21T08:03:47.664Z,11.47
2023-05-21T08:06:50.286Z,10.53
2023-05-21T08:09:55.107Z,10.20
2023-05-21T08:12:59.265Z,13.37
2023-05-21T08:16:02.729Z,9.80
2023-05-21T08:19:05.291Z,9.77
2023-05-21T08:22:08.130Z,11.57
2023-05-21T08:25:12.903Z,8.57
2023-05-21T08:28:15.426Z,13.07
2023-05-21T08:31:21.757Z,10.17
2023-05-21T08:34:27.796Z,11.07
2023-05-21T08:37:43.459Z,12.20
2023-05-21T08:40:55.074Z,10.40
2023-05-21T08:43:58.075Z,10.90
2023-05-21T08:47:06.496Z,13.50
2023-05-21T08:50:12.169Z,9.67
2023-05-21T08:53:24.167Z,13.53
2023-05-21T08:56:35.174Z,10.73
2023-05-21T08:59:40.260Z,13.77
2023-05-21T09:02:48.050Z,12.83
2023-05-21T09:05:55.423Z,8.80
2023-05-21T09:09:11.200Z,9.17
2023-05-21T09:12:21.450Z,10.03
2023-05-21T09:15:25.500Z,10.37
2023-05-21T09:18:29.230Z,9.77
2023-05-21T09:21:44.743Z,11.90
2023-05-21T09:24:55.241Z,9.47
2023-05-21T09:27:58.706Z,8.97
2023-05-21T09:31:03.938Z,10.10
2023-05-21T09:34:07.075Z,9.30
2023-05-21T09:37:23.675Z,8.90
2023-05-21T09:40:29.589Z,12.07
2023-05-21T09:43:32.553Z,10.03
2023-05-21T09:46:43.138Z,9.17
2023-05-21T09:49:46.353Z,9.00
2023-05-21T09:52:51.689Z,10.53
2023-05-21T09:55:58.847Z,9.13
2023-05-21T09:59:04.714Z,12.13
2023-05-21T10:02:20.371Z,9.33
2023-05-21T10:05:28.410Z,8.80
2023-05-21T10:08:36.607Z,9.07
2023-05-21T10:11:42.415Z,10.00
2023-05-21T10:14:50.408Z,7.63
2023-05-21T10:17:53.703Z,9.03
2023-05-21T10:20:56.631Z,9.50
2023-05-21T10:23:59.258Z,10.80
2023-05-21T10:27:03.265Z,11.07
2023-05-21T10:30:06.998Z,8.50
2023-05-21T10:33:09.509Z,7.70
2023-05-21T10:36:12.350Z,10.83
2023-05-21T10:39:16.947Z,9.57
2023-05-21T10:42:57.579Z,12.90
2023-05-21T10:46:19.596Z,7.57
2023-05-21T10:49:39.325Z,7.93
2023-05-21T10:53:11.557Z,8.63
2023-05-21T10:56:31.207Z,11.97
2023-05-21T10:59:42.360Z,9.97
2023-05-21T11:02:46.161Z,6.87
2023-05-21T11:05:54.522Z,7.40
2023-05-21T11:08:57.172Z,8.33
2023-05-21T11:12:01.170Z,7.53
2023-05-21T11:15:03.789Z,7.97
2023-05-21T11:18:06.152Z,7.47
2023-05-21T11:21:11.675Z,7.77
2023-05-21T11:24:19.604Z,7.00
2023-05-21T11:27:41.530Z,6.77
2023-05-21T11:30:44.308Z,7.50
2023-05-21T11:33:48.158Z,7.93
2023-05-21T11:37:18.173Z,8.07
2023-05-21T11:40:26.498Z,8.40
2023-05-21T11:43:29.299Z,7.23
2023-05-21T11:46:32.258Z,7.83
2023-05-21T11:49:35.841Z,8.10
2023-05-21T11:52:38.584Z,8.00
2023-05-21T11:55:47.690Z,6.40
2023-05-21T11:58:50.564Z,6.35
2023-05-21T12:01:53.055Z,7.18
2023-05-21T12:04:56.206Z,6.93
2023-05-21T12:07:58.663Z,10.43
2023-05-21T12:11:02.066Z,6.15
2023-05-21T12:14:07.117Z,6.55
2023-05-21T12:17:10.744Z,7.88
2023-05-21T12:20:16.766Z,7.10
2023-05-21T12:23:26.272Z,7.80
2023-05-21T12:26:28.838Z,7.13
2023-05-21T12:29:32.615Z,6.63
2023-05-21T12:35:57.579Z,8.30
2023-05-21T12:38:59.951Z,6.80
2023-05-21T12:42:06.387Z,9.65
2023-05-21T12:45:09.613Z,7.70
2023-05-21T12:48:13.674Z,8.20
2023-05-21T12:51:16.124Z,5.90
2023-05-21T12:54:18.424Z,7.22
2023-05-21T12:57:25.850Z,6.38
2023-05-21T13:00:28.242Z,6.47
2023-05-21T13:03:32.872Z,7.47
2023-05-21T13:06:45.742Z,6.90
2023-05-21T13:09:49.001Z,6.03
2023-05-21T13:12:51.246Z,7.15
2023-05-21T13:15:55.285Z,6.97
2023-05-21T13:18:57.610Z,6.97
2023-05-21T13:21:59.914Z,7.03
2023-05-21T13:25:03.137Z,8.10
2023-05-21T13:28:06.709Z,5.35
2023-05-21T13:31:09.153Z,8.40
2023-05-21T13:34:15.002Z,8.20
2023-05-21T13:37:17.281Z,8.32
2023-05-21T13:40:19.581Z,6.78
2023-05-21T13:43:21.973Z,6.03
2023-05-21T13:46:24.213Z,6.22
2023-05-21T13:49:26.429Z,6.82
2023-05-21T13:52:28.799Z,6.70
2023-05-21T13:55:31.770Z,7.55
2023-05-21T13:58:35.011Z,7.30
2023-05-21T14:01:38.404Z,6.60
2023-05-21T14:04:40.578Z,5.07
2023-05-21T14:07:43.749Z,5.85
2023-05-21T14:10:46.146Z,6.38
2023-05-21T14:13:48.506Z,5.40
2023-05-21T14:16:51.864Z,6.00
2023-05-21T14:19:55.424Z,5.30
2023-05-21T14:22:57.704Z,7.68
2023-05-21T14:25:59.918Z,8.43
2023-05-21T14:29:02.661Z,7.60
2023-05-21T14:32:05.388Z,5.63
2023-05-21T14:35:13.714Z,7.45
2023-05-21T14:38:16.681Z,8.17
2023-05-21T14:41:18.967Z,8.47
2023-05-21T14:44:21.297Z,5.33
2023-05-21T14:47:23.698Z,5.80
2023-05-21T14:50:25.898Z,5.50
2023-05-21T14:53:28.146Z,5.20
2023-05-21T14:56:30.289Z,5.33
2023-05-21T14:59:32.446Z,7.93
2023-05-21T15:02:34.824Z,5.23
2023-05-21T15:05:37.878Z,4.50
2023-05-21T15:08:41.340Z,5.30
2023-05-21T15:15:13.885Z,5.80
2023-05-21T15:18:18.167Z,5.80
2023-05-21T15:21:20.614Z,5.90
2023-05-21T15:24:23.012Z,5.70
2023-05-21T15:27:26.290Z,6.47
2023-05-21T15:30:28.581Z,6.67
2023-05-21T15:33:31.596Z,6.23
2023-05-21T15:36:33.988Z,7.43
2023-05-21T15:39:36.236Z,5.80
2023-05-21T15:42:38.417Z,4.80
2023-05-21T15:45:40.632Z,5.90
2023-05-21T15:48:42.907Z,5.33
2023-05-21T15:51:46.691Z,4.63
2023-05-21T15:54:48.885Z,4.83
2023-05-21T15:57:51.065Z,6.57
2023-05-21T16:00:53.314Z,9.23
2023-05-21T16:03:56.177Z,4.90
2023-05-21T16:06:58.499Z,4.73
2023-05-21T16:10:00.639Z,6.00
2023-05-21T16:13:03.340Z,6.73
2023-05-21T16:16:05.989Z,7.90
2023-05-21T16:19:08.258Z,4.90
2023-05-21T16:22:11.041Z,5.33
2023-05-21T16:25:13.311Z,7.17
2023-05-21T16:28:16.476Z,5.20
2023-05-21T16:31:18.751Z,5.73
2023-05-21T16:34:20.920Z,5.73
2023-05-21T16:37:30.546Z,7.00
2023-05-21T16:40:32.785Z,10.10
2023-05-21T16:43:34.960Z,6.23
2023-05-21T16:46:37.226Z,6.63
2023-05-21T16:49:39.398Z,5.73
2023-05-21T16:52:42.504Z,5.93
2023-05-21T16:55:44.705Z,7.93
2023-05-21T16:58:47.447Z,8.93
2023-05-21T17:01:49.932Z,7.37
2023-05-21T17:04:52.243Z,9.67
2023-05-21T17:07:55.899Z,6.60
2023-05-21T17:10:58.774Z,6.00
2023-05-21T17:14:01.340Z,7.33
2023-05-21T17:17:05.307Z,7.60
2023-05-21T17:20:08.105Z,7.87
2023-05-21T17:23:11.278Z,8.83
2023-05-21T17:26:14.147Z,9.53
2023-05-21T17:29:16.431Z,8.50
2023-05-21T17:32:19.194Z,7.60
2023-05-21T17:35:22.583Z,7.63
2023-05-21T17:38:24.882Z,7.97
2023-05-21T17:41:27.135Z,9.07
2023-05-21T17:44:29.495Z,10.17
2023-05-21T17:47:33.224Z,10.73
2023-05-21T17:50:36.449Z,9.17
2023-05-21T17:53:39.326Z,8.57
2023-05-21T17:56:42.253Z,7.93
2023-05-21T17:59:45.862Z,7.03
2023-05-21T18:02:48.671Z,9.83
2023-05-21T18:05:51.128Z,8.37
2023-05-21T18:08:53.339Z,8.93
2023-05-21T18:11:55.602Z,12.17
2023-05-21T18:14:57.892Z,11.43
2023-05-21T18:18:00.843Z,12.70
2023-05-21T18:21:03.171Z,8.20
2023-05-21T18:24:06.635Z,9.03
2023-05-21T18:27:09.144Z,10.57
2023-05-21T18:30:11.924Z,9.23
2023-05-21T18:33:15.600Z,9.73
2023-05-21T18:36:18.053Z,9.00
2023-05-21T18:39:24.871Z,9.10
2023-05-21T18:42:28.527Z,11.43
2023-05-21T18:45:30.816Z,10.90
2023-05-21T18:48:33.313Z,12.70
2023-05-21T18:51:35.632Z,11.13
2023-05-21T18:54:38.334Z,10.90
2023-05-21T18:57:40.688Z,7.60
2023-05-21T19:00:43.631Z,9.47
2023-05-21T19:03:46.422Z,10.80
2023-05-21T19:06:48.713Z,13.27
2023-05-21T19:09:52.934Z,9.73
2023-05-21T19:12:55.477Z,8.13
2023-05-21T19:15:58.876Z,11.20
2023-05-21T19:19:02.297Z,11.23
2023-05-21T19:22:05.145Z,7.60
2023-05-21T19:25:07.706Z,11.83
2023-05-21T19:28:10.772Z,11.67
2023-05-21T19:31:13.093Z,10.50
2023-05-21T19:34:16.148Z,10.00
2023-05-21T19:37:18.557Z,10.27
2023-05-21T19:40:22.895Z,10.10
2023-05-21T19:43:25.058Z,10.93
2023-05-21T19:46:27.370Z,8.93
2023-05-21T19:49:29.761Z,10.93
2023-05-21T19:52:32.431Z,11.20
2023-05-21T19:55:37.139Z,11.87
2023-05-21T19:58:39.355Z,10.77
2023-05-21T20:01:43.466Z,9.63
2023-05-21T20:04:45.884Z,9.83
2023-05-21T20:07:48.264Z,10.70
2023-05-21T20:10:51.899Z,14.53
2023-05-21T20:13:54.529Z,8.77
2023-05-21T20:16:58.811Z,9.90
2023-05-21T20:20:02.058Z,10.07
2023-05-21T20:23:04.215Z,10.23
2023-05-21T20:26:07.423Z,9.87
2023-05-21T20:29:09.610Z,9.40
2023-05-21T20:32:11.936Z,9.77
2023-05-21T20:35:14.254Z,9.13
2023-05-21T20:38:17.716Z,11.47
2023-05-21T20:41:20.318Z,11.17
2023-05-21T20:44:22.668Z,8.93
2023-05-21T20:47:25.111Z,9.67
2023-05-21T20:50:28.983Z,8.93
2023-05-21T20:53:31.571Z,10.37
2023-05-21T20:56:42.145Z,10.10
2023-05-21T20:59:44.967Z,9.77
2023-05-21T21:02:47.297Z,9.93
2023-05-21T21:05:50.019Z,11.27
2023-05-21T21:08:52.574Z,12.63
2023-05-21T21:11:56.808Z,10.10
2023-05-21T21:14:59.118Z,9.97
2023-05-21T21:18:01.452Z,10.43
2023-05-21T21:21:03.779Z,10.57
2023-05-21T21:24:07.458Z,13.43
2023-05-21T21:27:09.766Z,9.90
2023-05-21T21:30:12.302Z,12.43
2023-05-21T21:33:16.612Z,13.40
2023-05-21T21:36:19.018Z,9.60
2023-05-21T21:39:21.361Z,10.63
2023-05-21T21:42:23.702Z,9.97
2023-05-21T21:45:27.459Z,13.80
2023-05-21T21:48:29.725Z,11.00
2023-05-21T21:51:31.995Z,11.40
2023-05-21T21:54:35.199Z,10.47
2023-05-21T21:57:39.096Z,10.93
2023-05-21T22:00:41.658Z,10.60
2023-05-21T22:03:44.109Z,10.53
2023-05-21T22:06:46.982Z,12.20
2023-05-21T22:09:49.374Z,13.33
2023-05-21T22:12:51.612Z,11.33
2023-05-21T22:15:55.289Z,11.77
2023-05-21T22:18:58.334Z,11.87
2023-05-21T22:22:02.279Z,11.27
2023-05-21T22:25:04.805Z,11.27
2023-05-21T22:28:07.122Z,11.87
2023-05-21T22:31:09.423Z,11.37
2023-05-21T22:34:12.388Z,10.93
2023-05-21T22:37:14.848Z,10.77
2023-05-21T22:40:17.649Z,12.00
2023-05-21T22:43:20.004Z,11.20
2023-05-21T22:46:22.302Z,16.07
2023-05-21T22:49:24.842Z,11.37
2023-05-21T22:52:27.712Z,11.13
2023-05-21T22:55:29.958Z,11.20
2023-05-21T22:58:32.379Z,10.97
2023-05-21T23:01:34.714Z,11.87
2023-05-21T23:04:44.057Z,12.30
2023-05-21T23:07:46.892Z,12.20
2023-05-21T23:10:49.143Z,12.43
2023-05-21T23:13:51.393Z,12.40
2023-05-21T23:16:54.268Z,13.67
2023-05-21T23:19:56.692Z,14.10
2023-05-21T23:22:58.866Z,13.67
2023-05-21T23:26:01.305Z,13.60
2023-05-21T23:29:03.621Z,13.20
2023-05-21T23:32:06.378Z,12.47
2023-05-21T23:35:10.260Z,12.77
2023-05-21T23:38:12.577Z,12.77
2023-05-21T23:41:15.073Z,12.17
2023-05-21T23:44:17.459Z,12.50
2023-05-21T23:47:19.677Z,11.90
2023-05-21T23:50:22.597Z,13.57
2023-05-21T23:53:24.860Z,12.17
2023-05-21T23:56:27.134Z,11.27
2023-05-21T23:59:29.539Z,11.57
